Matad, Mongolia
Current Conditions -  °F | °C
As of 11:00 AM on Saturday 01 Nov 2014 (Local Time) from UIAA Reporting Station
Broken Clouds Broken Clouds  
Wind Chill: 19°   Ceiling: 20000
Heat Index: 28°   Visibility: 6mi
Dew Point: 18°   Wind: 11mph
Humidity: 64%   Direction: 200°SSW
Pressure: 29.94"   Gusts: NA
Location:  47.13°N, 115.64°E
Report Text: UIAA 010300Z 20005MPS 9999 SCT100 BKN200 M02/M08 Q1014 NOSIGRMK QFE702 29CLRD70
Loading
Personal Weather Stations






























Interactive Weather Map
Tropical Storm Tracking
New forecast layout! Learn more

10-Day Weather Forecast

Advertisements
Track Severe Weather on mobile